Spiegelgracht — PCEO — position and weather

sailwx.info

Track history (hours):
 
Tides and Currents Weather Stations Pressure Air Temp Water Temp Dewpoint Dewpoint Depression Visibility Wind Speed Wind Dir Waves Ship Positions

Spiegelgracht

Last reported at 2018-May-28 03:00 UTC. Time now 2018-May-28 03:27 UTC.
Position N 48°36' W 005°45'.

Length 168 m; beam 25 m.

Type: Cargo ship. MMSI: 245789000.

Date/timePositionNaut miles runAvg speedWind from/ knotsBaromVisibWave heightAir tempDewpointWater temp
2018-May-28 03:00N 48°36' W 005°45'1418.9
2018-May-28 02:14N 48°23' W 005°54'619.0
2018-May-28 01:56N 48°18' W 005°58'1918.9
2018-May-28 00:56N 48°01' W 006°11'2021.2
2018-May-28 00:00N 47°42' W 006°18'11018.3 310 / 61016.8 5.4 17.513.422.2
2018-May-27 18:00N 46°06' W 007°36'39414.1 300 / 121015.8 2.2 16.512.723.5
2018-May-26 14:02N 39°45' W 009°50'113.9
2018-May-26 13:58N 39°44' W 009°50'613.6
2018-May-26 13:30N 39°38' W 009°50'713.8
2018-May-26 13:00N 39°31' W 009°50'714.1
2018-May-26 12:30N 39°24' W 009°50'714.1
2018-May-26 12:01N 39°16' W 009°51'714.3
2018-May-26 11:30N 39°09' W 009°50'714.0
2018-May-26 11:00N 39°02' W 009°51'713.9
2018-May-26 10:30N 38°55' W 009°50'714.3
2018-May-26 10:00N 38°48' W 009°50'714.3
2018-May-26 09:30N 38°41' W 009°49'714.2
2018-May-26 09:00N 38°34' W 009°47'714.3
2018-May-26 08:30N 38°27' W 009°44'714.2
2018-May-26 08:00N 38°21' W 009°42'714.3
2018-May-26 07:30N 38°14' W 009°40'714.2
2018-May-26 07:00N 38°07' W 009°38'714.3
2018-May-26 06:30N 37°60' W 009°36'1414.4
2018-May-26 05:30N 37°45' W 009°35'714.8
2018-May-26 05:00N 37°38' W 009°33'915.8
2018-May-26 04:28N 37°30' W 009°29'1615.8
2018-May-26 03:26N 37°14' W 009°25'715.7
2018-May-26 03:00N 37°08' W 009°23'915.5
2018-May-26 02:26N 36°59' W 009°20'1015.1
2018-May-26 01:46N 36°50' W 009°15'415.5
2018-May-26 01:30N 36°47' W 009°12'915.3
2018-May-26 00:54N 36°43' W 009°01'615.7
2018-May-26 00:30N 36°41' W 008°54'815.6
2018-May-26 00:00N 36°38' W 008°45'815.6
2018-May-25 23:30N 36°36' W 008°36'815.5
2018-May-25 23:00N 36°34' W 008°26'915.8
2018-May-25 22:25N 36°30' W 008°15'715.4
2018-May-25 21:57N 36°28' W 008°07'12614.5
2018-May-25 13:14N 35°57' W 005°35'312.5
2018-May-25 13:00N 35°59' W 005°32'612.6
2018-May-25 12:30N 36°01' W 005°25'21216.4
2018-May-24 23:34N 37°06' W 001°14'219.9
2018-May-24 23:27N 37°07' W 001°12'919.8
2018-May-24 23:00N 37°13' W 001°03'1019.8
2018-May-24 22:30N 37°19' W 000°54'1719.2
2018-May-24 21:36N 37°31' W 000°38'219.0
2018-May-24 21:30N 37°33' W 000°36'918.4
2018-May-24 21:00N 37°40' W 000°29'1019.5
2018-May-24 20:30N 37°49' W 000°24'1020.0
2018-May-24 20:00N 37°57' W 000°17'3419.9
2018-May-24 18:18N 38°25' E 000°08'  
2018-May-22 11:04N 38°40' E 000°26'118.4
2018-May-22 11:00N 38°39' E 000°25'918.4
2018-May-22 10:30N 38°31' E 000°18'1018.5
2018-May-22 09:59N 38°23' E 000°12'1818.1
2018-May-22 09:01N 38°09' W 000°01'117.7
2018-May-22 08:57N 38°08' W 000°01'3017.5
2018-May-22 07:16N 37°43' W 000°22'518.2
2018-May-22 07:00N 37°39' W 000°25'2118.1
2018-May-22 05:50N 37°24' W 000°44'918.6
2018-May-22 05:23N 37°18' W 000°52'21519.0
2018-May-21 18:04N 36°02' W 005°03'122.2
2018-May-21 18:00N 36°01' W 005°04'1121.6
2018-May-21 17:30N 36°00' W 005°18'1020.9
2018-May-21 17:01N 35°57' W 005°30'  
Track history (hours):
 
Tides and Currents Weather Stations Pressure Air Temp Water Temp Dewpoint Dewpoint Depression Visibility Wind Speed Wind Dir Waves Ship Positions

Spiegelgracht

Last reported at 2018-May-28 03:00 UTC. Time now 2018-May-28 03:27 UTC.
Position N 48°36' W 005°45'.

Length 168 m; beam 25 m.

Type: Cargo ship. MMSI: 245789000.

Date/timePositionNaut miles runAvg speedWind from/ knotsBaromVisibWave heightAir tempDewpointWater temp
2018-May-28 03:00N 48°36' W 005°45'1418.9
2018-May-28 02:14N 48°23' W 005°54'619.0
2018-May-28 01:56N 48°18' W 005°58'1918.9
2018-May-28 00:56N 48°01' W 006°11'2021.2
2018-May-28 00:00N 47°42' W 006°18'11018.3 310 / 61016.8 5.4 17.513.422.2
2018-May-27 18:00N 46°06' W 007°36'39414.1 300 / 121015.8 2.2 16.512.723.5
2018-May-26 14:02N 39°45' W 009°50'113.9
2018-May-26 13:58N 39°44' W 009°50'613.6
2018-May-26 13:30N 39°38' W 009°50'713.8
2018-May-26 13:00N 39°31' W 009°50'714.1
2018-May-26 12:30N 39°24' W 009°50'714.1
2018-May-26 12:01N 39°16' W 009°51'714.3
2018-May-26 11:30N 39°09' W 009°50'714.0
2018-May-26 11:00N 39°02' W 009°51'713.9
2018-May-26 10:30N 38°55' W 009°50'714.3
2018-May-26 10:00N 38°48' W 009°50'714.3
2018-May-26 09:30N 38°41' W 009°49'714.2
2018-May-26 09:00N 38°34' W 009°47'714.3
2018-May-26 08:30N 38°27' W 009°44'714.2
2018-May-26 08:00N 38°21' W 009°42'714.3
2018-May-26 07:30N 38°14' W 009°40'714.2
2018-May-26 07:00N 38°07' W 009°38'714.3
2018-May-26 06:30N 37°60' W 009°36'1414.4
2018-May-26 05:30N 37°45' W 009°35'714.8
2018-May-26 05:00N 37°38' W 009°33'915.8
2018-May-26 04:28N 37°30' W 009°29'1615.8
2018-May-26 03:26N 37°14' W 009°25'715.7
2018-May-26 03:00N 37°08' W 009°23'915.5
2018-May-26 02:26N 36°59' W 009°20'1015.1
2018-May-26 01:46N 36°50' W 009°15'415.5
2018-May-26 01:30N 36°47' W 009°12'915.3
2018-May-26 00:54N 36°43' W 009°01'615.7
2018-May-26 00:30N 36°41' W 008°54'815.6
2018-May-26 00:00N 36°38' W 008°45'815.6
2018-May-25 23:30N 36°36' W 008°36'815.5
2018-May-25 23:00N 36°34' W 008°26'915.8
2018-May-25 22:25N 36°30' W 008°15'715.4
2018-May-25 21:57N 36°28' W 008°07'12614.5
2018-May-25 13:14N 35°57' W 005°35'312.5
2018-May-25 13:00N 35°59' W 005°32'612.6
2018-May-25 12:30N 36°01' W 005°25'21216.4
2018-May-24 23:34N 37°06' W 001°14'219.9
2018-May-24 23:27N 37°07' W 001°12'919.8
2018-May-24 23:00N 37°13' W 001°03'1019.8
2018-May-24 22:30N 37°19' W 000°54'1719.2
2018-May-24 21:36N 37°31' W 000°38'219.0
2018-May-24 21:30N 37°33' W 000°36'918.4
2018-May-24 21:00N 37°40' W 000°29'1019.5
2018-May-24 20:30N 37°49' W 000°24'1020.0
2018-May-24 20:00N 37°57' W 000°17'3419.9
2018-May-24 18:18N 38°25' E 000°08'  
2018-May-22 11:04N 38°40' E 000°26'118.4
2018-May-22 11:00N 38°39' E 000°25'918.4
2018-May-22 10:30N 38°31' E 000°18'1018.5
2018-May-22 09:59N 38°23' E 000°12'1818.1
2018-May-22 09:01N 38°09' W 000°01'117.7
2018-May-22 08:57N 38°08' W 000°01'3017.5
2018-May-22 07:16N 37°43' W 000°22'518.2
2018-May-22 07:00N 37°39' W 000°25'2118.1
2018-May-22 05:50N 37°24' W 000°44'918.6
2018-May-22 05:23N 37°18' W 000°52'21519.0
2018-May-21 18:04N 36°02' W 005°03'122.2
2018-May-21 18:00N 36°01' W 005°04'1121.6
2018-May-21 17:30N 36°00' W 005°18'1020.9
2018-May-21 17:01N 35°57' W 005°30'  

Dump ship's entire track history